createdAt,value
2019-04-21T00:00:22.795Z,14.09
2019-04-21T00:01:22.368Z,13.99
2019-04-21T00:02:30.155Z,13.88
2019-04-21T00:03:30.378Z,13.89
2019-04-21T00:04:33.245Z,14.01
2019-04-21T00:05:38.326Z,14.04
2019-04-21T00:06:40.804Z,13.99
2019-04-21T00:07:49.133Z,13.81
2019-04-21T00:08:41.577Z,13.89
2019-04-21T00:09:50.561Z,13.76
2019-04-21T00:10:40.588Z,13.74
2019-04-21T00:11:41.342Z,13.70
2019-04-21T00:12:41.881Z,13.74
2019-04-21T00:13:33.159Z,13.70
2019-04-21T00:14:35.052Z,13.62
2019-04-21T00:15:29.817Z,13.61
2019-04-21T00:16:33.092Z,13.59
2019-04-21T00:17:24.904Z,13.47
2019-04-21T00:18:23.288Z,13.59
2019-04-21T00:19:28.051Z,13.49
2019-04-21T00:20:32.310Z,13.29
2019-04-21T00:21:29.214Z,13.20
2019-04-21T00:22:36.719Z,13.22
2019-04-21T00:23:43.686Z,13.33
2019-04-21T00:24:37.477Z,13.24
2019-04-21T00:25:33.716Z,13.32
2019-04-21T00:26:36.365Z,13.29
2019-04-21T00:27:39.669Z,13.30
2019-04-21T00:28:47.243Z,13.20
2019-04-21T00:30:44.344Z,13.25
2019-04-21T00:31:38.318Z,13.32
2019-04-21T00:32:35.257Z,13.22
2019-04-21T00:33:28.017Z,13.29
2019-04-21T00:34:21.929Z,13.24
2019-04-21T00:35:25.818Z,13.11
2019-04-21T00:36:27.824Z,13.11
2019-04-21T00:37:43.459Z,12.97
2019-04-21T00:38:56.273Z,12.96
2019-04-21T00:39:49.329Z,12.96
2019-04-21T00:40:45.704Z,12.79
2019-04-21T00:41:47.063Z,12.70
2019-04-21T00:42:38.914Z,12.70
2019-04-21T00:43:37.848Z,12.70
2019-04-21T00:44:35.583Z,12.66
2019-04-21T00:45:37.087Z,12.49
2019-04-21T00:46:34.777Z,12.51
2019-04-21T00:47:39.064Z,12.59
2019-04-21T00:48:45.658Z,12.66
2019-04-21T00:49:36.919Z,12.51
2019-04-21T00:50:51.470Z,12.64
2019-04-21T00:52:51.297Z,12.46
2019-04-21T00:53:51.184Z,12.44
2019-04-21T00:54:49.851Z,12.41
2019-04-21T00:55:45.917Z,12.42
2019-04-21T00:56:54.145Z,12.42
2019-04-21T00:57:46.860Z,12.45
2019-04-21T00:58:47.960Z,12.19
2019-04-21T00:59:48.399Z,12.29
2019-04-21T01:00:49.578Z,12.13
2019-04-21T01:01:44.682Z,12.09
2019-04-21T01:03:46.085Z,12.12
2019-04-21T01:04:42.824Z,12.12
2019-04-21T01:05:46.928Z,12.04
2019-04-21T01:06:43.483Z,11.89
2019-04-21T01:07:42.260Z,11.99
2019-04-21T01:08:42.772Z,12.06
2019-04-21T01:09:39.861Z,12.15
2019-04-21T01:10:34.924Z,12.09
2019-04-21T01:11:44.824Z,12.13
2019-04-21T01:12:44.435Z,12.08
2019-04-21T01:13:46.828Z,12.13
2019-04-21T01:14:49.652Z,12.24
2019-04-21T01:15:49.048Z,12.52
2019-04-21T01:16:48.548Z,12.42
2019-04-21T01:18:44.307Z,12.13
2019-04-21T01:19:39.786Z,12.15
2019-04-21T01:20:21.732Z,12.13
2019-04-21T01:21:21.724Z,12.20
2019-04-21T01:22:21.717Z,12.33
2019-04-21T01:23:21.725Z,12.38
2019-04-21T01:24:28.836Z,12.29
2019-04-21T01:25:30.279Z,12.37
2019-04-21T01:26:37.176Z,12.38
2019-04-21T01:27:43.883Z,12.15
2019-04-21T01:28:39.971Z,12.09
2019-04-21T01:29:51.432Z,12.12
2019-04-21T01:30:41.478Z,12.13
2019-04-21T01:31:37.582Z,12.09
2019-04-21T01:32:43.895Z,12.06
2019-04-21T01:33:46.106Z,12.04
2019-04-21T01:34:39.618Z,12.19
2019-04-21T01:35:44.299Z,12.12
2019-04-21T01:36:41.313Z,12.11
2019-04-21T01:37:44.033Z,11.96
2019-04-21T01:38:48.119Z,11.94
2019-04-21T01:39:51.342Z,11.99
2019-04-21T01:41:02.221Z,11.94
2019-04-21T01:41:49.458Z,11.99
2019-04-21T01:42:45.866Z,11.82
2019-04-21T01:43:40.397Z,11.80
2019-04-21T01:44:44.987Z,11.78
2019-04-21T01:45:41.649Z,11.70
2019-04-21T01:46:33.916Z,11.49
2019-04-21T01:47:40.494Z,11.44
2019-04-21T01:48:39.076Z,11.50
2019-04-21T01:49:31.827Z,11.43
2019-04-21T01:50:42.666Z,11.32
2019-04-21T01:51:45.450Z,11.65
2019-04-21T01:52:57.361Z,11.67
2019-04-21T01:53:45.720Z,11.52
2019-04-21T01:54:43.144Z,11.56
2019-04-21T01:55:43.155Z,12.12
2019-04-21T01:56:40.475Z,12.13
2019-04-21T01:57:37.454Z,12.38
2019-04-21T01:58:35.764Z,12.39
2019-04-21T01:59:34.986Z,12.13
2019-04-21T02:00:39.389Z,11.82
2019-04-21T02:01:39.238Z,12.02
2019-04-21T02:02:43.724Z,12.06
2019-04-21T02:03:53.201Z,12.08
2019-04-21T02:04:52.567Z,11.94
2019-04-21T02:05:48.086Z,11.82
2019-04-21T02:06:45.558Z,12.09
2019-04-21T02:07:43.025Z,12.44
2019-04-21T02:08:36.416Z,12.51
2019-04-21T02:09:46.043Z,12.51
2019-04-21T02:10:46.195Z,12.20
2019-04-21T02:11:43.193Z,12.23
2019-04-21T02:12:46.004Z,12.12
2019-04-21T02:14:51.513Z,11.97
2019-04-21T02:15:46.971Z,11.87
2019-04-21T02:16:40.715Z,11.77
2019-04-21T02:17:45.309Z,11.67
2019-04-21T02:18:40.751Z,12.16
2019-04-21T02:19:39.588Z,12.57
2019-04-21T02:20:32.686Z,12.81
2019-04-21T02:21:34.183Z,12.81
2019-04-21T02:22:59.156Z,12.74
2019-04-21T02:23:46.765Z,12.51
2019-04-21T02:24:49.357Z,12.21
2019-04-21T02:25:44.226Z,12.11
2019-04-21T02:26:44.390Z,12.16
2019-04-21T02:27:42.869Z,12.05
2019-04-21T02:28:49.838Z,12.02
2019-04-21T02:29:48.717Z,12.12
2019-04-21T02:31:02.474Z,11.99
2019-04-21T02:34:59.960Z,11.77
2019-04-21T02:38:57.805Z,11.86
2019-04-21T02:39:56.729Z,12.01
2019-04-21T02:42:15.037Z,11.44
2019-04-21T02:43:02.734Z,11.24
2019-04-21T02:43:54.422Z,11.61
2019-04-21T02:44:52.130Z,11.77
2019-04-21T02:45:58.594Z,11.67
2019-04-21T02:47:53.456Z,11.52
2019-04-21T02:48:56.436Z,11.44
2019-04-21T02:49:59.624Z,11.31
2019-04-21T02:50:45.113Z,11.28
2019-04-21T02:51:54.431Z,11.32
2019-04-21T02:52:54.017Z,11.17
2019-04-21T02:54:22.841Z,11.24
2019-04-21T02:55:52.622Z,11.35
2019-04-21T02:57:01.297Z,11.28
2019-04-21T02:57:59.529Z,11.21
2019-04-21T03:00:04.136Z,11.24
2019-04-21T03:01:14.485Z,11.28
2019-04-21T03:01:56.638Z,11.29
2019-04-21T03:03:06.993Z,11.27
2019-04-21T03:03:55.035Z,11.19
2019-04-21T03:04:53.222Z,11.17
2019-04-21T03:05:50.921Z,11.10
2019-04-21T03:07:57.005Z,11.28
2019-04-21T03:08:58.810Z,11.32
2019-04-21T03:10:54.191Z,11.06
2019-04-21T03:11:59.748Z,11.21
2019-04-21T03:12:45.854Z,10.80
2019-04-21T03:14:03.018Z,10.74
2019-04-21T03:16:03.107Z,10.66
2019-04-21T03:16:43.442Z,10.78
2019-04-21T03:18:01.816Z,10.83
2019-04-21T03:19:06.782Z,10.88
2019-04-21T03:21:00.689Z,11.02
2019-04-21T03:21:57.643Z,10.95
2019-04-21T03:22:57.634Z,10.84
2019-04-21T03:23:53.638Z,10.91
2019-04-21T03:25:52.277Z,10.86
2019-04-21T03:27:00.982Z,10.74
2019-04-21T03:28:00.750Z,10.83
2019-04-21T03:29:57.135Z,10.86
2019-04-21T03:37:58.516Z,10.59
2019-04-21T03:38:47.422Z,10.63
2019-04-21T03:40:47.116Z,10.74
2019-04-21T03:42:00.184Z,10.77
2019-04-21T03:42:52.985Z,10.71
2019-04-21T03:43:50.247Z,10.63
2019-04-21T03:47:14.631Z,10.56
2019-04-21T03:47:53.451Z,10.51
2019-04-21T03:48:57.133Z,10.43
2019-04-21T03:50:02.451Z,10.43
2019-04-21T03:50:56.410Z,10.40
2019-04-21T03:51:56.919Z,10.26
2019-04-21T03:52:53.314Z,10.25
2019-04-21T03:53:49.732Z,10.18
2019-04-21T03:54:57.747Z,10.30
2019-04-21T03:56:02.785Z,10.32
2019-04-21T03:57:11.242Z,10.42
2019-04-21T03:58:06.518Z,10.43
2019-04-21T03:59:55.632Z,10.37
2019-04-21T04:01:00.267Z,10.19
2019-04-21T04:02:08.230Z,10.32
2019-04-21T04:02:57.164Z,10.21
2019-04-21T04:04:12.181Z,10.30
2019-04-21T04:04:53.011Z,10.26
2019-04-21T04:06:56.553Z,10.10
2019-04-21T04:08:09.056Z,10.09
2019-04-21T04:28:52.400Z,9.81
2019-04-21T04:29:35.570Z,9.64
2019-04-21T04:31:37.669Z,9.67
2019-04-21T04:32:36.774Z,9.64
2019-04-21T04:35:45.810Z,9.73
2019-04-21T04:36:52.634Z,9.81
2019-04-21T04:37:36.746Z,9.73
2019-04-21T04:38:39.578Z,9.86
2019-04-21T04:39:48.687Z,9.89
2019-04-21T04:40:34.759Z,9.89
2019-04-21T04:42:27.214Z,9.96
2019-04-21T04:43:55.490Z,9.96
2019-04-21T04:46:44.237Z,9.96
2019-04-21T04:47:34.984Z,9.99
2019-04-21T04:48:37.441Z,9.94
2019-04-21T04:50:45.447Z,9.78
2019-04-21T04:51:44.372Z,9.96
2019-04-21T04:52:41.959Z,10.00
2019-04-21T04:53:42.689Z,9.94
2019-04-21T04:55:33.748Z,10.00
2019-04-21T04:56:40.521Z,9.96
2019-04-21T04:59:42.671Z,9.93
2019-04-21T05:03:43.803Z,10.26
2019-04-21T05:05:36.307Z,10.65
2019-04-21T05:06:42.654Z,10.78
2019-04-21T05:07:52.415Z,10.86
2019-04-21T05:08:42.252Z,10.99
2019-04-21T05:09:31.603Z,10.99
2019-04-21T05:10:51.493Z,11.07
2019-04-21T05:12:29.270Z,11.24
2019-04-21T05:13:35.145Z,11.41
2019-04-21T05:14:30.144Z,11.36
2019-04-21T05:15:23.911Z,11.53
2019-04-21T05:16:41.031Z,11.68
2019-04-21T05:18:35.190Z,12.04
2019-04-21T05:19:39.022Z,12.27
2019-04-21T05:20:24.963Z,12.54
2019-04-21T05:21:34.653Z,12.63
2019-04-21T05:22:30.965Z,12.96
2019-04-21T05:23:24.410Z,13.62
2019-04-21T05:24:24.058Z,14.49
2019-04-21T05:25:22.334Z,15.66
2019-04-21T05:26:17.104Z,16.71
2019-04-21T05:27:21.890Z,17.46
2019-04-21T05:28:15.154Z,17.85
2019-04-21T05:29:18.407Z,18.25
2019-04-21T05:30:33.915Z,18.47
2019-04-21T05:31:27.006Z,18.62
2019-04-21T05:32:29.776Z,18.98
2019-04-21T05:34:27.084Z,19.58
2019-04-21T05:35:26.786Z,19.95
2019-04-21T05:36:20.767Z,20.10
2019-04-21T05:37:24.460Z,20.13
2019-04-21T05:38:21.851Z,20.28
2019-04-21T05:39:18.444Z,20.25
2019-04-21T05:40:19.858Z,20.18
2019-04-21T05:41:17.558Z,20.51
2019-04-21T05:42:23.224Z,20.35
2019-04-21T05:43:28.370Z,20.39
2019-04-21T05:44:29.473Z,19.76
2019-04-21T05:45:30.006Z,18.61
2019-04-21T05:46:25.171Z,18.06
2019-04-21T05:48:31.893Z,18.03
2019-04-21T05:49:21.979Z,18.42
2019-04-21T05:50:24.654Z,19.40
2019-04-21T05:51:25.583Z,20.53
2019-04-21T05:52:19.850Z,21.26
2019-04-21T05:53:34.376Z,21.26
2019-04-21T05:54:30.036Z,21.95
2019-04-21T05:55:34.200Z,21.95
2019-04-21T05:56:32.081Z,22.16
2019-04-21T05:57:25.370Z,22.46
2019-04-21T05:58:27.090Z,22.67
2019-04-21T05:59:26.269Z,23.07
2019-04-21T06:00:39.373Z,23.08
2019-04-21T06:01:33.437Z,23.02
2019-04-21T06:02:42.022Z,22.59
2019-04-21T06:03:30.655Z,22.71
2019-04-21T06:04:41.514Z,23.32
2019-04-21T06:06:34.064Z,22.86
2019-04-21T06:07:28.890Z,22.77
2019-04-21T06:08:25.688Z,22.75
2019-04-21T06:09:29.709Z,22.68
2019-04-21T06:10:27.391Z,22.83
2019-04-21T06:11:28.131Z,22.94
2019-04-21T06:12:29.909Z,23.29
2019-04-21T06:13:37.877Z,23.32
2019-04-21T06:14:30.464Z,23.29
2019-04-21T06:15:34.088Z,23.19
2019-04-21T06:16:29.353Z,22.44
2019-04-21T06:17:32.997Z,22.39
2019-04-21T06:18:34.620Z,22.94
2019-04-21T06:19:30.960Z,22.46
2019-04-21T06:20:27.136Z,21.94
2019-04-21T06:21:26.376Z,20.66
2019-04-21T06:22:23.909Z,19.60
2019-04-21T06:23:25.084Z,19.08
2019-04-21T06:24:30.960Z,18.49
2019-04-21T06:26:51.700Z,17.85
2019-04-21T06:27:32.466Z,17.47
2019-04-21T06:28:35.444Z,17.46
2019-04-21T06:29:30.029Z,17.18
2019-04-21T06:30:35.880Z,16.89
2019-04-21T06:31:47.122Z,17.04
2019-04-21T06:32:46.020Z,16.96
2019-04-21T06:33:32.230Z,16.96
2019-04-21T06:34:37.815Z,16.90
2019-04-21T06:38:36.044Z,16.70
2019-04-21T06:39:31.811Z,16.60
2019-04-21T06:40:30.571Z,16.45
2019-04-21T06:41:32.657Z,16.33
2019-04-21T06:42:26.970Z,16.20
2019-04-21T06:44:29.618Z,15.81
2019-04-21T06:46:30.685Z,15.86
2019-04-21T06:47:33.598Z,15.46
2019-04-21T06:48:32.697Z,15.26
2019-04-21T06:49:28.130Z,15.05
2019-04-21T06:50:35.235Z,15.33
2019-04-21T06:51:27.360Z,15.39
2019-04-21T06:52:46.532Z,15.72
2019-04-21T06:53:29.656Z,15.57
2019-04-21T06:54:30.647Z,15.70
2019-04-21T06:55:31.175Z,15.45
2019-04-21T06:56:30.976Z,15.36
2019-04-21T06:57:29.230Z,15.26
2019-04-21T06:58:27.831Z,15.05
2019-04-21T06:59:27.496Z,15.01
2019-04-21T07:00:24.705Z,15.05
2019-04-21T07:01:30.851Z,15.19
2019-04-21T07:03:29.532Z,15.08
2019-04-21T07:05:26.436Z,15.20
2019-04-21T07:06:29.512Z,15.06
2019-04-21T07:07:26.383Z,15.19
2019-04-21T07:08:34.585Z,15.06
2019-04-21T07:09:30.025Z,14.93
2019-04-21T07:10:30.492Z,14.94
2019-04-21T07:11:27.073Z,15.08
2019-04-21T07:12:23.191Z,15.08
2019-04-21T07:13:27.142Z,15.15
2019-04-21T07:15:30.448Z,15.45
2019-04-21T07:16:25.167Z,15.49
2019-04-21T07:17:29.365Z,15.52
2019-04-21T07:18:28.652Z,15.57
2019-04-21T07:19:35.994Z,15.68
2019-04-21T07:20:21.534Z,15.74
2019-04-21T07:21:29.376Z,15.46
2019-04-21T07:22:33.750Z,15.41
2019-04-21T07:23:32.247Z,15.36
2019-04-21T07:25:28.407Z,15.46
2019-04-21T07:26:25.090Z,15.64
2019-04-21T07:27:29.231Z,15.61
2019-04-21T07:28:25.971Z,15.67
2019-04-21T07:29:32.570Z,15.66
2019-04-21T07:30:31.470Z,15.74
2019-04-21T07:31:31.887Z,15.82
2019-04-21T07:32:26.468Z,15.78
2019-04-21T07:34:36.242Z,15.93
2019-04-21T07:35:27.016Z,15.74
2019-04-21T07:36:37.955Z,15.78
2019-04-21T07:37:23.975Z,15.78
2019-04-21T07:38:21.192Z,15.89
2019-04-21T07:39:25.548Z,16.03
2019-04-21T07:40:19.283Z,16.01
2019-04-21T07:41:18.343Z,16.11
2019-04-21T07:42:17.454Z,15.94
2019-04-21T07:43:20.763Z,15.70
2019-04-21T07:44:19.604Z,15.78
2019-04-21T07:45:19.489Z,15.94
2019-04-21T07:46:21.388Z,15.89
2019-04-21T07:47:23.076Z,16.09
2019-04-21T07:48:24.938Z,16.06
2019-04-21T07:49:25.264Z,16.11
2019-04-21T07:50:27.451Z,16.07
2019-04-21T07:51:27.181Z,16.23
2019-04-21T07:52:28.382Z,16.30
2019-04-21T07:53:30.291Z,16.27
2019-04-21T07:54:34.216Z,16.20
2019-04-21T07:56:09.717Z,16.33
2019-04-21T07:57:18.810Z,16.34
2019-04-21T07:58:26.240Z,16.41
2019-04-21T07:59:34.191Z,16.27
2019-04-21T08:00:33.489Z,16.35
2019-04-21T08:01:24.360Z,16.44
2019-04-21T08:02:28.147Z,16.48
2019-04-21T08:03:30.317Z,16.45
2019-04-21T08:04:44.089Z,16.53
2019-04-21T08:05:27.997Z,16.52
2019-04-21T08:06:28.218Z,16.55
2019-04-21T08:07:30.606Z,16.71
2019-04-21T08:08:23.407Z,16.99
2019-04-21T08:09:29.243Z,16.58
2019-04-21T08:10:22.383Z,16.68
2019-04-21T08:11:23.566Z,16.65
2019-04-21T08:12:19.718Z,16.63
2019-04-21T08:13:34.554Z,16.75
2019-04-21T08:14:24.272Z,16.75
2019-04-21T08:15:29.108Z,16.90
2019-04-21T08:16:28.638Z,16.85
2019-04-21T08:17:28.493Z,16.92
2019-04-21T08:18:28.731Z,16.83
2019-04-21T08:19:26.815Z,16.83
2019-04-21T08:20:25.503Z,16.92
2019-04-21T08:21:22.025Z,16.90
2019-04-21T08:22:25.729Z,16.85
2019-04-21T08:23:25.602Z,16.95
2019-04-21T08:24:20.050Z,17.04
2019-04-21T08:25:27.277Z,16.98
2019-04-21T08:26:24.816Z,17.04
2019-04-21T08:27:32.092Z,17.08
2019-04-21T08:28:26.514Z,17.14
2019-04-21T08:29:33.386Z,17.30
2019-04-21T08:30:29.158Z,17.26
2019-04-21T08:31:35.556Z,17.26
2019-04-21T08:32:36.379Z,17.33
2019-04-21T08:33:32.603Z,17.33
2019-04-21T08:34:29.915Z,17.43
2019-04-21T08:36:38.406Z,17.70
2019-04-21T08:37:29.531Z,17.64
2019-04-21T08:38:22.005Z,17.69
2019-04-21T08:39:33.206Z,17.55
2019-04-21T08:41:28.130Z,17.53
2019-04-21T08:42:25.373Z,17.59
2019-04-21T08:43:35.513Z,17.78
2019-04-21T08:44:25.641Z,17.82
2019-04-21T08:45:27.926Z,17.82
2019-04-21T08:46:25.370Z,17.84
2019-04-21T08:47:30.037Z,17.73
2019-04-21T08:48:22.598Z,17.69
2019-04-21T08:49:23.441Z,17.78
2019-04-21T08:50:28.031Z,17.91
2019-04-21T08:51:39.703Z,17.92
2019-04-21T08:53:27.375Z,17.97
2019-04-21T08:55:30.598Z,17.99
2019-04-21T08:56:31.983Z,18.19
2019-04-21T08:57:39.618Z,18.07
2019-04-21T08:58:31.007Z,18.03
2019-04-21T08:59:25.509Z,18.07
2019-04-21T09:00:27.831Z,18.10
2019-04-21T09:01:30.404Z,18.03
2019-04-21T09:02:29.481Z,18.07
2019-04-21T09:03:21.638Z,18.25
2019-04-21T09:04:26.211Z,18.42
2019-04-21T09:05:26.557Z,18.39
2019-04-21T09:06:40.371Z,18.34
2019-04-21T09:07:28.429Z,18.34
2019-04-21T09:08:24.814Z,18.33
2019-04-21T09:09:27.876Z,18.39
2019-04-21T09:10:21.993Z,18.58
2019-04-21T09:11:22.572Z,18.61
2019-04-21T09:12:24.399Z,18.62
2019-04-21T09:13:24.747Z,18.58
2019-04-21T09:14:28.856Z,18.54
2019-04-21T09:15:21.620Z,18.55
2019-04-21T09:16:20.391Z,18.58
2019-04-21T09:17:16.364Z,18.73
2019-04-21T09:18:18.813Z,18.68
2019-04-21T09:19:34.070Z,18.61
2019-04-21T09:20:25.096Z,18.73
2019-04-21T09:21:28.550Z,18.82
2019-04-21T09:22:28.362Z,18.82
2019-04-21T09:23:19.284Z,18.82
2019-04-21T09:24:24.732Z,18.76
2019-04-21T09:25:26.926Z,18.74
2019-04-21T09:26:28.298Z,18.94
2019-04-21T09:27:20.689Z,18.97
2019-04-21T09:28:20.068Z,19.08
2019-04-21T09:29:17.452Z,19.11
2019-04-21T09:30:06.553Z,19.13
2019-04-21T09:31:05.288Z,19.24
2019-04-21T09:32:09.659Z,19.28
2019-04-21T09:33:05.700Z,19.23
2019-04-21T09:34:06.626Z,19.15
2019-04-21T09:35:10.312Z,19.13
2019-04-21T09:36:07.919Z,19.23
2019-04-21T09:37:20.327Z,19.20
2019-04-21T09:38:17.122Z,19.47
2019-04-21T09:39:11.230Z,19.38
2019-04-21T09:40:04.949Z,19.40
2019-04-21T09:41:06.757Z,19.57
2019-04-21T09:42:05.111Z,19.70
2019-04-21T09:43:08.507Z,19.70
2019-04-21T09:44:09.925Z,19.69
2019-04-21T09:45:06.592Z,19.68
2019-04-21T09:46:04.169Z,19.73
2019-04-21T09:47:06.944Z,19.79
2019-04-21T09:48:09.922Z,19.72
2019-04-21T09:49:09.501Z,19.88
2019-04-21T09:50:05.204Z,19.78
2019-04-21T09:51:04.194Z,19.76
2019-04-21T09:52:08.898Z,19.84
2019-04-21T09:53:14.621Z,19.76
2019-04-21T09:54:08.813Z,19.88
2019-04-21T09:55:10.009Z,19.88
2019-04-21T09:56:07.949Z,19.84
2019-04-21T09:57:10.595Z,19.94
2019-04-21T09:58:15.176Z,20.09
2019-04-21T09:59:14.907Z,20.23
2019-04-21T10:00:12.145Z,20.35
2019-04-21T10:01:17.504Z,20.25
2019-04-21T10:02:11.638Z,20.49
2019-04-21T10:03:08.110Z,20.61
2019-04-21T10:04:05.691Z,20.42
2019-04-21T10:05:05.271Z,20.72
2019-04-21T10:06:04.467Z,20.59
2019-04-21T10:07:04.582Z,20.54
2019-04-21T10:08:05.780Z,20.61
2019-04-21T10:09:06.272Z,20.59
2019-04-21T10:10:04.238Z,20.74
2019-04-21T10:11:05.353Z,20.84
2019-04-21T10:12:05.208Z,20.80
2019-04-21T10:13:05.054Z,20.89
2019-04-21T10:14:05.246Z,20.80
2019-04-21T10:15:04.309Z,20.76
2019-04-21T10:16:05.176Z,20.69
2019-04-21T10:17:04.739Z,20.68
2019-04-21T10:18:06.264Z,20.80
2019-04-21T10:19:04.680Z,20.83
2019-04-21T10:20:05.149Z,20.89
2019-04-21T10:21:05.442Z,20.81
2019-04-21T10:22:05.878Z,20.93
2019-04-21T10:23:05.086Z,20.96
2019-04-21T10:24:04.313Z,20.91
2019-04-21T10:25:04.720Z,21.13
2019-04-21T10:26:04.319Z,21.32
2019-04-21T10:27:06.895Z,21.26
2019-04-21T10:28:05.257Z,21.30
2019-04-21T10:29:12.849Z,21.20
2019-04-21T10:30:05.450Z,21.04
2019-04-21T10:31:04.861Z,21.23
2019-04-21T10:32:05.774Z,21.36
2019-04-21T10:33:04.223Z,21.35
2019-04-21T10:34:05.303Z,21.50
2019-04-21T10:35:05.336Z,21.39
2019-04-21T10:36:04.628Z,21.48
2019-04-21T10:37:04.941Z,21.42
2019-04-21T10:38:16.786Z,21.59
2019-04-21T10:39:04.318Z,21.66
2019-04-21T10:40:05.381Z,21.63
2019-04-21T10:41:05.388Z,21.51
2019-04-21T10:42:05.576Z,21.64
2019-04-21T10:43:04.275Z,21.72
2019-04-21T10:44:05.069Z,21.79
2019-04-21T10:45:05.168Z,21.90
2019-04-21T10:46:04.509Z,21.85
2019-04-21T10:47:04.783Z,21.95
2019-04-21T10:48:05.155Z,21.92
2019-04-21T10:49:04.455Z,22.01
2019-04-21T10:50:04.516Z,21.81
2019-04-21T10:51:05.361Z,21.92
2019-04-21T10:52:04.690Z,21.88
2019-04-21T10:53:04.961Z,21.79
2019-04-21T10:54:04.405Z,21.88
2019-04-21T10:55:24.136Z,21.88
2019-04-21T10:56:15.407Z,21.83
2019-04-21T10:57:04.320Z,21.94
2019-04-21T10:58:04.574Z,21.88
2019-04-21T10:59:04.530Z,22.13
2019-04-21T11:00:07.468Z,22.27
2019-04-21T11:01:04.307Z,22.25
2019-04-21T11:02:05.140Z,22.09
2019-04-21T11:03:04.731Z,22.09
2019-04-21T11:04:07.443Z,22.04
2019-04-21T11:05:04.827Z,22.22
2019-04-21T11:06:04.306Z,22.19
2019-04-21T11:07:10.714Z,22.29
2019-04-21T11:08:12.158Z,22.19
2019-04-21T11:09:05.460Z,22.25
2019-04-21T11:10:04.554Z,22.39
2019-04-21T11:11:05.663Z,22.39
2019-04-21T11:12:04.409Z,22.39
2019-04-21T11:13:04.975Z,22.41
2019-04-21T11:14:04.421Z,22.43
2019-04-21T11:15:05.268Z,22.59
2019-04-21T11:16:05.494Z,22.46
2019-04-21T11:17:05.951Z,22.28
2019-04-21T11:18:04.410Z,22.47
2019-04-21T11:19:04.413Z,22.62
2019-04-21T11:20:04.650Z,22.64
2019-04-21T11:21:04.908Z,22.57
2019-04-21T11:22:05.109Z,22.75
2019-04-21T11:23:04.431Z,22.75
2019-04-21T11:24:04.389Z,22.57
2019-04-21T11:25:05.090Z,22.56
2019-04-21T11:26:04.482Z,22.46
2019-04-21T11:27:04.714Z,22.62
2019-04-21T11:28:05.126Z,22.69
2019-04-21T11:29:05.220Z,22.71
2019-04-21T11:30:05.365Z,22.75
2019-04-21T11:31:04.837Z,22.68
2019-04-21T11:32:05.205Z,22.72
2019-04-21T11:33:04.428Z,22.83
2019-04-21T11:34:05.139Z,22.57
2019-04-21T11:35:05.303Z,22.67
2019-04-21T11:36:04.420Z,22.53
2019-04-21T11:37:04.526Z,22.43
2019-04-21T11:38:12.095Z,22.25
2019-04-21T11:39:19.357Z,22.53
2019-04-21T11:40:10.521Z,22.34
2019-04-21T11:41:05.530Z,22.53
2019-04-21T11:42:05.797Z,22.32
2019-04-21T11:43:05.969Z,22.17
2019-04-21T11:44:05.031Z,22.25
2019-04-21T11:45:04.423Z,22.75
2019-04-21T11:46:04.639Z,22.80
2019-04-21T11:47:04.626Z,22.68
2019-04-21T11:48:04.425Z,22.87
2019-04-21T11:49:04.446Z,22.57
2019-04-21T11:50:05.343Z,22.57
2019-04-21T11:51:04.765Z,22.49
2019-04-21T11:52:04.904Z,22.34
2019-04-21T11:53:07.020Z,22.32
2019-04-21T11:54:04.638Z,22.71
2019-04-21T11:55:04.757Z,22.74
2019-04-21T11:56:04.861Z,22.77
2019-04-21T11:57:12.409Z,22.78
2019-04-21T11:58:05.563Z,22.54
2019-04-21T11:59:05.784Z,22.68
2019-04-21T12:00:05.967Z,22.41
2019-04-21T12:01:05.603Z,22.41
2019-04-21T12:02:05.572Z,22.57
2019-04-21T12:03:05.786Z,22.84
2019-04-21T12:04:05.838Z,23.12
2019-04-21T12:05:05.479Z,23.20
2019-04-21T12:06:05.777Z,23.04
2019-04-21T12:07:05.114Z,22.87
2019-04-21T12:08:16.238Z,22.67
2019-04-21T12:09:05.270Z,22.60
2019-04-21T12:10:05.695Z,22.57
2019-04-21T12:11:05.328Z,22.74
2019-04-21T12:12:05.348Z,23.14
2019-04-21T12:13:07.252Z,23.14
2019-04-21T12:14:05.799Z,23.11
2019-04-21T12:15:04.518Z,22.83
2019-04-21T12:16:05.219Z,22.67
2019-04-21T12:17:05.559Z,22.62
2019-04-21T12:18:05.909Z,22.54
2019-04-21T12:19:05.108Z,22.57
2019-04-21T12:20:04.548Z,23.32
2019-04-21T12:21:05.280Z,23.31
2019-04-21T12:22:11.351Z,23.43
2019-04-21T12:23:04.732Z,23.42
2019-04-21T12:24:04.550Z,23.20
2019-04-21T12:25:05.089Z,23.61
2019-04-21T12:26:05.114Z,23.72
2019-04-21T12:27:05.763Z,23.62
2019-04-21T12:28:05.823Z,23.67
2019-04-21T12:29:05.896Z,23.67
2019-04-21T12:30:05.902Z,23.60
2019-04-21T12:31:05.395Z,23.47
2019-04-21T12:32:05.634Z,23.75
2019-04-21T12:33:04.662Z,23.75
2019-04-21T12:34:05.767Z,23.61
2019-04-21T12:35:06.000Z,23.61
2019-04-21T12:36:06.049Z,23.79
2019-04-21T12:37:04.695Z,23.64
2019-04-21T12:38:04.775Z,23.71
2019-04-21T12:39:06.757Z,23.83
2019-04-21T12:40:04.617Z,23.82
2019-04-21T12:41:04.731Z,23.52
2019-04-21T12:42:04.810Z,23.60
2019-04-21T12:43:04.637Z,23.53
2019-04-21T12:44:04.726Z,23.79
2019-04-21T12:45:05.612Z,23.87
2019-04-21T12:46:04.645Z,24.00
2019-04-21T12:47:05.769Z,23.92
2019-04-21T12:48:06.052Z,23.85
2019-04-21T12:49:04.638Z,23.86
2019-04-21T12:50:04.670Z,24.01
2019-04-21T12:51:05.989Z,23.89
2019-04-21T12:52:05.891Z,23.86
2019-04-21T12:53:05.361Z,23.67
2019-04-21T12:54:05.855Z,23.70
2019-04-21T12:55:05.794Z,23.80
2019-04-21T12:56:05.416Z,23.57
2019-04-21T12:57:05.419Z,23.62
2019-04-21T12:58:05.536Z,23.76
2019-04-21T12:59:05.059Z,23.62
2019-04-21T13:00:04.861Z,23.46
2019-04-21T13:01:05.029Z,23.32
2019-04-21T13:02:04.748Z,23.34
2019-04-21T13:03:05.801Z,23.22
2019-04-21T13:04:05.817Z,23.39
2019-04-21T13:05:04.719Z,23.68
2019-04-21T13:06:05.526Z,23.90
2019-04-21T13:07:05.581Z,23.95
2019-04-21T13:08:04.758Z,23.95
2019-04-21T13:09:07.440Z,23.94
2019-04-21T13:10:06.343Z,24.00
2019-04-21T13:11:04.749Z,23.82
2019-04-21T13:12:04.915Z,24.12
2019-04-21T13:13:05.873Z,23.86
2019-04-21T13:14:06.040Z,23.79
2019-04-21T13:15:04.748Z,23.87
2019-04-21T13:16:05.354Z,23.90
2019-04-21T13:17:05.655Z,23.87
2019-04-21T13:18:04.805Z,23.94
2019-04-21T13:19:05.072Z,23.86
2019-04-21T13:20:05.326Z,23.92
2019-04-21T13:21:05.922Z,24.14
2019-04-21T13:22:05.839Z,24.04
2019-04-21T13:23:05.953Z,24.01
2019-04-21T13:24:05.230Z,23.82
2019-04-21T13:25:05.501Z,23.79
2019-04-21T13:26:06.132Z,23.94
2019-04-21T13:27:05.695Z,23.79
2019-04-21T13:28:05.006Z,23.85
2019-04-21T13:29:05.915Z,23.87
2019-04-21T13:30:06.234Z,24.16
2019-04-21T13:31:04.838Z,24.35
2019-04-21T13:32:05.506Z,24.35
2019-04-21T13:33:05.097Z,24.34
2019-04-21T13:34:06.043Z,24.49
2019-04-21T13:35:05.366Z,24.42
2019-04-21T13:36:05.074Z,24.59
2019-04-21T13:37:05.724Z,24.47
2019-04-21T13:38:04.849Z,24.49
2019-04-21T13:39:32.496Z,24.42
2019-04-21T13:40:25.192Z,24.53
2019-04-21T13:41:17.534Z,24.39
2019-04-21T13:42:13.227Z,24.34
2019-04-21T13:43:08.079Z,24.12
2019-04-21T13:44:05.218Z,24.19
2019-04-21T13:45:06.304Z,24.23
2019-04-21T13:46:05.886Z,24.05
2019-04-21T13:47:04.991Z,23.85
2019-04-21T13:48:06.456Z,23.76
2019-04-21T13:49:05.230Z,23.98
2019-04-21T13:50:06.720Z,24.10
2019-04-21T13:51:05.048Z,24.01
2019-04-21T13:52:04.939Z,23.85
2019-04-21T13:53:05.016Z,23.82
2019-04-21T13:54:04.915Z,24.19
2019-04-21T13:55:05.532Z,24.16
2019-04-21T13:56:04.930Z,24.31
2019-04-21T13:57:05.001Z,24.41
2019-04-21T13:58:06.254Z,24.56
2019-04-21T13:59:06.403Z,24.56
2019-04-21T14:00:05.728Z,24.37
2019-04-21T14:01:05.628Z,24.16
2019-04-21T14:02:04.978Z,24.27
2019-04-21T14:03:04.959Z,24.47
2019-04-21T14:04:05.279Z,24.75
2019-04-21T14:05:08.167Z,24.71
2019-04-21T14:06:06.507Z,24.85
2019-04-21T14:07:06.032Z,24.59
2019-04-21T14:08:05.134Z,24.69
2019-04-21T14:09:05.280Z,24.67
2019-04-21T14:10:08.173Z,24.63
2019-04-21T14:11:05.163Z,24.53
2019-04-21T14:12:05.421Z,24.61
2019-04-21T14:13:04.999Z,24.47
2019-04-21T14:14:06.103Z,24.52
2019-04-21T14:15:06.258Z,24.53
2019-04-21T14:16:06.164Z,24.38
2019-04-21T14:17:05.521Z,24.34
2019-04-21T14:18:05.032Z,24.68
2019-04-21T14:19:05.627Z,24.73
2019-04-21T14:20:05.031Z,24.56
2019-04-21T14:21:05.114Z,24.63